Mauk, Georgia
Current Conditions -  °F | °C
As of 4:55 PM on Saturday 25 Oct 2014 (Local Time) from KACJ Reporting Station
Clear Clear  
Wind Chill: 77°   Ceiling: Unl
Heat Index: 78°   Visibility: 10mi
Dew Point: 45°   Wind: 3mph
Humidity: 32%   Direction: 10°N
Pressure: 30.01"   Gusts: NA
Location:  32.5°N, 84.42°W
Report Text: KACJ 252055Z AUTO 01003KT 10SM CLR 25/07 A3001 RMK AO2
Loading
Personal Weather Stations






























Interactive Weather Map
Tropical Storm Tracking
New forecast layout! Learn more

10-Day Weather Forecast

Advertisements
Track Severe Weather on mobile